aviador You're here:

KTCM Decoded Metar

TACOMA in WA, USA
Report Time2018-06-22 02:58:00
UTC Time2018-06-22 03:10:30
Flight Rules vfr VFR
Wind270° at 07 kt
W.Decomp.*RWY 16: 7.0 kt RCW
W.Rank270° ranks 17
Current wind is above 270° avg. (5.8)
Visibility9999 m
Phenomena:N/A
Clouds:Overcast 034 Hf
Expected CloudBase > 1,600 ft AGL from Temp-Dew spread
Ceiling3,400 ft
Temp18°C (ISA +4)
Dew Point14°C (78% RH)
AAT16.8°C
QNH1021 hPa
Density Alt696 ft
Elevation322 ft
Report Wrong Elevation
Raw Report
KTCM 220258Z AUTO 27007KT 10SM OVC034 18/14 A3014 RMK AO2 SLP210
T01790140 53001 $=

Extra information for KTCM:More info

Metar Taf Metar & Taf Last 4 Metars F.Rules Stats Wind Profile Meteogram Temp Stats Airport Information Weather charts Add Link Nearby VenuesMetar ALERT Operation Metar Decoded Social comments

AIRNAV info for KTCM